Aviation Digital Data Service (ADDS)

Output produced by METARs form (1154 UTC 22 March 2019)
found at http://www.aviationweather.gov/metar/data/
 
METAR text: VVCI 221130Z 12008KT 9999 BKN028 26/24 Q1008 NOSIG
Conditions at: VVCI (CAT VI , VN) observed 1130 UTC 22 March 2019
Temperature: 26.0°C (79°F)
Dewpoint: 24.0°C (75°F) [RH = 89%]
Pressure (altimeter): 29.76 inches Hg (1008.0 mb)
Winds: from the ESE (120 degrees) at 9 MPH (8 knots; 4.1 m/s)
Visibility: 6 or more miles (10+ km)
Ceiling: 2800 feet AGL
Clouds: broken clouds at 2800 feet AGL
Weather: no significant weather observed at this time

METAR text: VVCI 221100Z 13007KT 9999 BKN027 26/24 Q1007 NOSIG
Conditions at: VVCI (CAT VI , VN) observed 1100 UTC 22 March 2019
Temperature: 26.0°C (79°F)
Dewpoint: 24.0°C (75°F) [RH = 89%]
Pressure (altimeter): 29.73 inches Hg (1007.0 mb)
Winds: from the SE (130 degrees) at 8 MPH (7 knots; 3.6 m/s)
Visibility: 6 or more miles (10+ km)
Ceiling: 2700 feet AGL
Clouds: broken clouds at 2700 feet AGL
Weather: no significant weather observed at this time

METAR text: VVCI 221030Z 13008KT 9999 FEW008 BKN027 26/25 Q1007 NOSIG
Conditions at: VVCI (CAT VI , VN) observed 1030 UTC 22 March 2019
Temperature: 26.0°C (79°F)
Dewpoint: 25.0°C (77°F) [RH = 94%]
Pressure (altimeter): 29.73 inches Hg (1007.0 mb)
Winds: from the SE (130 degrees) at 9 MPH (8 knots; 4.1 m/s)
Visibility: 6 or more miles (10+ km)
Ceiling: 2700 feet AGL
Clouds: few clouds at 800 feet AGL
broken clouds at 2700 feet AGL
Weather: no significant weather observed at this time

METAR text: VVCI 221000Z 12008KT 9999 FEW008 SCT011 26/25 Q1007 NOSIG
Conditions at: VVCI (CAT VI , VN) observed 1000 UTC 22 March 2019
Temperature: 26.0°C (79°F)
Dewpoint: 25.0°C (77°F) [RH = 94%]
Pressure (altimeter): 29.73 inches Hg (1007.0 mb)
Winds: from the ESE (120 degrees) at 9 MPH (8 knots; 4.1 m/s)
Visibility: 6 or more miles (10+ km)
Ceiling: at least 12,000 feet AGL
Clouds: few clouds at 800 feet AGL
scattered clouds at 1100 feet AGL
Weather: no significant weather observed at this time

METAR text: VVCI 220930Z 13008KT 9999 FEW009 BKN016 BKN025 27/26 Q1006 NOSIG
Conditions at: VVCI (CAT VI , VN) observed 0930 UTC 22 March 2019
Temperature: 27.0°C (81°F)
Dewpoint: 26.0°C (79°F) [RH = 94%]
Pressure (altimeter): 29.70 inches Hg (1006.0 mb)
Winds: from the SE (130 degrees) at 9 MPH (8 knots; 4.1 m/s)
Visibility: 6 or more miles (10+ km)
Ceiling: 1600 feet AGL
Clouds: few clouds at 900 feet AGL
broken clouds at 1600 feet AGL
broken clouds at 2500 feet AGL
Weather: no significant weather observed at this time

METAR text: VVCI 220900Z 13008KT 9999 FEW010 BKN014 BKN024 27/26 Q1006 NOSIG
Conditions at: VVCI (CAT VI , VN) observed 0900 UTC 22 March 2019
Temperature: 27.0°C (81°F)
Dewpoint: 26.0°C (79°F) [RH = 94%]
Pressure (altimeter): 29.70 inches Hg (1006.0 mb)
Winds: from the SE (130 degrees) at 9 MPH (8 knots; 4.1 m/s)
Visibility: 6 or more miles (10+ km)
Ceiling: 1400 feet AGL
Clouds: few clouds at 1000 feet AGL
broken clouds at 1400 feet AGL
broken clouds at 2400 feet AGL
Weather: no significant weather observed at this time

METAR text: VVCI 220830Z 13007KT 9999 SCT010 BKN012 BKN029 27/25 Q1007 NOSIG
Conditions at: VVCI (CAT VI , VN) observed 0830 UTC 22 March 2019
Temperature: 27.0°C (81°F)
Dewpoint: 25.0°C (77°F) [RH = 89%]
Pressure (altimeter): 29.73 inches Hg (1007.0 mb)
Winds: from the SE (130 degrees) at 8 MPH (7 knots; 3.6 m/s)
Visibility: 6 or more miles (10+ km)
Ceiling: 1200 feet AGL
Clouds: scattered clouds at 1000 feet AGL
broken clouds at 1200 feet AGL
broken clouds at 2900 feet AGL
Weather: no significant weather observed at this time

METAR text: VVCI 220800Z 12006KT 090V150 9999 FEW011 BKN013 BKN018 27/25 Q1007 NOSIG
Conditions at: VVCI (CAT VI , VN) observed 0800 UTC 22 March 2019
Temperature: 27.0°C (81°F)
Dewpoint: 25.0°C (77°F) [RH = 89%]
Pressure (altimeter): 29.73 inches Hg (1007.0 mb)
Winds: from the ESE (120 degrees) at 7 MPH (6 knots; 3.1 m/s)
Visibility: 6 or more miles (10+ km)
Ceiling: 1300 feet AGL
Clouds: few clouds at 1100 feet AGL
broken clouds at 1300 feet AGL
broken clouds at 1800 feet AGL
Weather: no significant weather observed at this time

METAR text: VVCI 220730Z 13006KT 100V160 9999 SCT013 BKN017 28/25 Q1007 NOSIG
Conditions at: VVCI (CAT VI , VN) observed 0730 UTC 22 March 2019
Temperature: 28.0°C (82°F)
Dewpoint: 25.0°C (77°F) [RH = 84%]
Pressure (altimeter): 29.73 inches Hg (1007.0 mb)
Winds: from the SE (130 degrees) at 7 MPH (6 knots; 3.1 m/s)
Visibility: 6 or more miles (10+ km)
Ceiling: 1700 feet AGL
Clouds: scattered clouds at 1300 feet AGL
broken clouds at 1700 feet AGL
Weather: no significant weather observed at this time

METAR text: VVCI 220700Z 14006KT 9999 SCT014 BKN017 BKN033 28/25 Q1008 NOSIG
Conditions at: VVCI (CAT VI , VN) observed 0700 UTC 22 March 2019
Temperature: 28.0°C (82°F)
Dewpoint: 25.0°C (77°F) [RH = 84%]
Pressure (altimeter): 29.76 inches Hg (1008.0 mb)
Winds: from the SE (140 degrees) at 7 MPH (6 knots; 3.1 m/s)
Visibility: 6 or more miles (10+ km)
Ceiling: 1700 feet AGL
Clouds: scattered clouds at 1400 feet AGL
broken clouds at 1700 feet AGL
broken clouds at 3300 feet AGL
Weather: no significant weather observed at this time

METAR text: VVCI 220630Z 13006KT 090V160 9999 SCT013 BKN017 BKN033 28/25 Q1008 NOSIG
Conditions at: VVCI (CAT VI , VN) observed 0630 UTC 22 March 2019
Temperature: 28.0°C (82°F)
Dewpoint: 25.0°C (77°F) [RH = 84%]
Pressure (altimeter): 29.76 inches Hg (1008.0 mb)
Winds: from the SE (130 degrees) at 7 MPH (6 knots; 3.1 m/s)
Visibility: 6 or more miles (10+ km)
Ceiling: 1700 feet AGL
Clouds: scattered clouds at 1300 feet AGL
broken clouds at 1700 feet AGL
broken clouds at 3300 feet AGL
Weather: no significant weather observed at this time

METAR text: VVCI 220600Z 13007KT 9999 SCT012 BKN018 OVC033 27/25 Q1008 NOSIG
Conditions at: VVCI (CAT VI , VN) observed 0600 UTC 22 March 2019
Temperature: 27.0°C (81°F)
Dewpoint: 25.0°C (77°F) [RH = 89%]
Pressure (altimeter): 29.76 inches Hg (1008.0 mb)
Winds: from the SE (130 degrees) at 8 MPH (7 knots; 3.6 m/s)
Visibility: 6 or more miles (10+ km)
Ceiling: 1800 feet AGL
Clouds: scattered clouds at 1200 feet AGL
broken clouds at 1800 feet AGL
overcast cloud deck at 3300 feet AGL
Weather: no significant weather observed at this time

METAR text: VVCI 220530Z 13005KT 090V160 9999 BKN010 OVC030 27/25 Q1009 NOSIG
Conditions at: VVCI (CAT VI , VN) observed 0530 UTC 22 March 2019
Temperature: 27.0°C (81°F)
Dewpoint: 25.0°C (77°F) [RH = 89%]
Pressure (altimeter): 29.79 inches Hg (1009.0 mb)
Winds: from the SE (130 degrees) at 6 MPH (5 knots; 2.6 m/s)
Visibility: 6 or more miles (10+ km)
Ceiling: 1000 feet AGL
Clouds: broken clouds at 1000 feet AGL
overcast cloud deck at 3000 feet AGL
Weather: no significant weather observed at this time

METAR text: VVCI 220500Z 12006KT 9999 BKN010 OVC029 27/25 Q1009 NOSIG
Conditions at: VVCI (CAT VI , VN) observed 0500 UTC 22 March 2019
Temperature: 27.0°C (81°F)
Dewpoint: 25.0°C (77°F) [RH = 89%]
Pressure (altimeter): 29.79 inches Hg (1009.0 mb)
Winds: from the ESE (120 degrees) at 7 MPH (6 knots; 3.1 m/s)
Visibility: 6 or more miles (10+ km)
Ceiling: 1000 feet AGL
Clouds: broken clouds at 1000 feet AGL
overcast cloud deck at 2900 feet AGL
Weather: no significant weather observed at this time

METAR text: VVCI 220430Z 13007KT 100V170 9999 SCT011 BKN019 OVC027 27/25 Q1010 NOSIG
Conditions at: VVCI (CAT VI , VN) observed 0430 UTC 22 March 2019
Temperature: 27.0°C (81°F)
Dewpoint: 25.0°C (77°F) [RH = 89%]
Pressure (altimeter): 29.82 inches Hg (1010.0 mb)
Winds: from the SE (130 degrees) at 8 MPH (7 knots; 3.6 m/s)
Visibility: 6 or more miles (10+ km)
Ceiling: 1900 feet AGL
Clouds: scattered clouds at 1100 feet AGL
broken clouds at 1900 feet AGL
overcast cloud deck at 2700 feet AGL
Weather: no significant weather observed at this time

METAR text: VVCI 220400Z 14007KT 9999 SCT015 OVC026 26/25 Q1010 NOSIG
Conditions at: VVCI (CAT VI , VN) observed 0400 UTC 22 March 2019
Temperature: 26.0°C (79°F)
Dewpoint: 25.0°C (77°F) [RH = 94%]
Pressure (altimeter): 29.82 inches Hg (1010.0 mb)
Winds: from the SE (140 degrees) at 8 MPH (7 knots; 3.6 m/s)
Visibility: 6 or more miles (10+ km)
Ceiling: 2600 feet AGL
Clouds: scattered clouds at 1500 feet AGL
overcast cloud deck at 2600 feet AGL
Weather: no significant weather observed at this time

METAR text: VVCI 220330Z 13006KT 9999 FEW012 BKN014 OVC016 26/25 Q1010 NOSIG
Conditions at: VVCI (CAT VI , VN) observed 0330 UTC 22 March 2019
Temperature: 26.0°C (79°F)
Dewpoint: 25.0°C (77°F) [RH = 94%]
Pressure (altimeter): 29.82 inches Hg (1010.0 mb)
Winds: from the SE (130 degrees) at 7 MPH (6 knots; 3.1 m/s)
Visibility: 6 or more miles (10+ km)
Ceiling: 1400 feet AGL
Clouds: few clouds at 1200 feet AGL
broken clouds at 1400 feet AGL
overcast cloud deck at 1600 feet AGL
Weather: no significant weather observed at this time

METAR text: VVCI 220300Z 13006KT 9999 BKN012 OVC019 26/25 Q1011 NOSIG
Conditions at: VVCI (CAT VI , VN) observed 0300 UTC 22 March 2019
Temperature: 26.0°C (79°F)
Dewpoint: 25.0°C (77°F) [RH = 94%]
Pressure (altimeter): 29.85 inches Hg (1011.0 mb)
Winds: from the SE (130 degrees) at 7 MPH (6 knots; 3.1 m/s)
Visibility: 6 or more miles (10+ km)
Ceiling: 1200 feet AGL
Clouds: broken clouds at 1200 feet AGL
overcast cloud deck at 1900 feet AGL
Weather: no significant weather observed at this time

METAR text: VVCI 220230Z 13005KT 9999 SCT013 OVC018 26/25 Q1011 NOSIG
Conditions at: VVCI (CAT VI , VN) observed 0230 UTC 22 March 2019
Temperature: 26.0°C (79°F)
Dewpoint: 25.0°C (77°F) [RH = 94%]
Pressure (altimeter): 29.85 inches Hg (1011.0 mb)
Winds: from the SE (130 degrees) at 6 MPH (5 knots; 2.6 m/s)
Visibility: 6 or more miles (10+ km)
Ceiling: 1800 feet AGL
Clouds: scattered clouds at 1300 feet AGL
overcast cloud deck at 1800 feet AGL
Weather: no significant weather observed at this time

METAR text: VVCI 220200Z 12005KT 9999 FEW014 OVC018 26/25 Q1010 NOSIG
Conditions at: VVCI (CAT VI , VN) observed 0200 UTC 22 March 2019
Temperature: 26.0°C (79°F)
Dewpoint: 25.0°C (77°F) [RH = 94%]
Pressure (altimeter): 29.82 inches Hg (1010.0 mb)
Winds: from the ESE (120 degrees) at 6 MPH (5 knots; 2.6 m/s)
Visibility: 6 or more miles (10+ km)
Ceiling: 1800 feet AGL
Clouds: few clouds at 1400 feet AGL
overcast cloud deck at 1800 feet AGL
Weather: no significant weather observed at this time

METAR text: VVCI 220130Z 12005KT 9999 SCT015 OVC020 26/25 Q1010 NOSIG
Conditions at: VVCI (CAT VI , VN) observed 0130 UTC 22 March 2019
Temperature: 26.0°C (79°F)
Dewpoint: 25.0°C (77°F) [RH = 94%]
Pressure (altimeter): 29.82 inches Hg (1010.0 mb)
Winds: from the ESE (120 degrees) at 6 MPH (5 knots; 2.6 m/s)
Visibility: 6 or more miles (10+ km)
Ceiling: 2000 feet AGL
Clouds: scattered clouds at 1500 feet AGL
overcast cloud deck at 2000 feet AGL
Weather: no significant weather observed at this time

METAR text: VVCI 220100Z 10005KT 9999 FEW013 BKN016 OVC018 26/25 Q1010 NOSIG
Conditions at: VVCI (CAT VI , VN) observed 0100 UTC 22 March 2019
Temperature: 26.0°C (79°F)
Dewpoint: 25.0°C (77°F) [RH = 94%]
Pressure (altimeter): 29.82 inches Hg (1010.0 mb)
Winds: from the E (100 degrees) at 6 MPH (5 knots; 2.6 m/s)
Visibility: 6 or more miles (10+ km)
Ceiling: 1600 feet AGL
Clouds: few clouds at 1300 feet AGL
broken clouds at 1600 feet AGL
overcast cloud deck at 1800 feet AGL
Weather: no significant weather observed at this time

METAR text: VVCI 220030Z 08004KT 060V120 9999 SCT012 BKN014 OVC017 25/25 Q1009 NOSIG
Conditions at: VVCI (CAT VI , VN) observed 0030 UTC 22 March 2019
Temperature: 25.0°C (77°F)
Dewpoint: 25.0°C (77°F) [RH = 100%]
Pressure (altimeter): 29.79 inches Hg (1009.0 mb)
Winds: from the E (80 degrees) at 5 MPH (4 knots; 2.1 m/s)
Visibility: 6 or more miles (10+ km)
Ceiling: 1400 feet AGL
Clouds: scattered clouds at 1200 feet AGL
broken clouds at 1400 feet AGL
overcast cloud deck at 1700 feet AGL
Weather: no significant weather observed at this time

METAR text: VVCI 220000Z 10004KT 9000 FEW013 BKN015 OVC017 25/25 Q1009 NOSIG
Conditions at: VVCI (CAT VI , VN) observed 0000 UTC 22 March 2019
Temperature: 25.0°C (77°F)
Dewpoint: 25.0°C (77°F) [RH = 100%]
Pressure (altimeter): 29.79 inches Hg (1009.0 mb)
Winds: from the E (100 degrees) at 5 MPH (4 knots; 2.1 m/s)
Visibility: 6 miles ( 9 km)
Ceiling: 1500 feet AGL
Clouds: few clouds at 1300 feet AGL
broken clouds at 1500 feet AGL
overcast cloud deck at 1700 feet AGL
Weather: no significant weather observed at this time

METAR text: VVCI 212330Z 06003KT 350V120 8000 BKN012 BKN016 25/25 Q1009 NOSIG
Conditions at: VVCI (CAT VI , VN) observed 2330 UTC 21 March 2019
Temperature: 25.0°C (77°F)
Dewpoint: 25.0°C (77°F) [RH = 100%]
Pressure (altimeter): 29.79 inches Hg (1009.0 mb)
Winds: from the ENE (60 degrees) at 3 MPH (3 knots; 1.5 m/s)
Visibility: 5 miles ( 8 km)
Ceiling: 1200 feet AGL
Clouds: broken clouds at 1200 feet AGL
broken clouds at 1600 feet AGL
Weather: no significant weather observed at this time

METAR text: VVCI 212300Z 11006KT 080V140 9000 BKN012 BKN019 BKN022 25/25 Q1008 NOSIG
Conditions at: VVCI (CAT VI , VN) observed 2300 UTC 21 March 2019
Temperature: 25.0°C (77°F)
Dewpoint: 25.0°C (77°F) [RH = 100%]
Pressure (altimeter): 29.76 inches Hg (1008.0 mb)
Winds: from the ESE (110 degrees) at 7 MPH (6 knots; 3.1 m/s)
Visibility: 6 miles ( 9 km)
Ceiling: 1200 feet AGL
Clouds: broken clouds at 1200 feet AGL
broken clouds at 1900 feet AGL
broken clouds at 2200 feet AGL
Weather: no significant weather observed at this time

METAR text: VVCI 212230Z 08005KT 6000 FEW009 SCT011 OVC020 24/24 Q1008 NOSIG
Conditions at: VVCI (CAT VI , VN) observed 2230 UTC 21 March 2019
Temperature: 24.0°C (75°F)
Dewpoint: 24.0°C (75°F) [RH = 100%]
Pressure (altimeter): 29.76 inches Hg (1008.0 mb)
Winds: from the E (80 degrees) at 6 MPH (5 knots; 2.6 m/s)
Visibility: 4 miles ( 6 km)
Ceiling: 2000 feet AGL
Clouds: few clouds at 900 feet AGL
scattered clouds at 1100 feet AGL
overcast cloud deck at 2000 feet AGL
Weather: no significant weather observed at this time

METAR text: VVCI 212200Z 08005KT 6000 FEW009 SCT011 OVC020 24/24 Q1008 NOSIG
Conditions at: VVCI (CAT VI , VN) observed 2200 UTC 21 March 2019
Temperature: 24.0°C (75°F)
Dewpoint: 24.0°C (75°F) [RH = 100%]
Pressure (altimeter): 29.76 inches Hg (1008.0 mb)
Winds: from the E (80 degrees) at 6 MPH (5 knots; 2.6 m/s)
Visibility: 4 miles ( 6 km)
Ceiling: 2000 feet AGL
Clouds: few clouds at 900 feet AGL
scattered clouds at 1100 feet AGL
overcast cloud deck at 2000 feet AGL
Weather: no significant weather observed at this time

METAR text: VVCI 212130Z 09005KT 4600 BR FEW007 BKN020 BKN023 24/24 Q1007 NOSIG
Conditions at: VVCI (CAT VI , VN) observed 2130 UTC 21 March 2019
Temperature: 24.0°C (75°F)
Dewpoint: 24.0°C (75°F) [RH = 100%]
Pressure (altimeter): 29.73 inches Hg (1007.0 mb)
Winds: from the E (90 degrees) at 6 MPH (5 knots; 2.6 m/s)
Visibility: 2.86 miles (4.60 km)
Ceiling: 2000 feet AGL
Clouds: few clouds at 700 feet AGL
broken clouds at 2000 feet AGL
broken clouds at 2300 feet AGL
Weather: BR  (mist)

METAR text: VVCI 212100Z 09005KT 4600 BR FEW007 BKN020 BKN023 24/24 Q1007 NOSIG
Conditions at: VVCI (CAT VI , VN) observed 2100 UTC 21 March 2019
Temperature: 24.0°C (75°F)
Dewpoint: 24.0°C (75°F) [RH = 100%]
Pressure (altimeter): 29.73 inches Hg (1007.0 mb)
Winds: from the E (90 degrees) at 6 MPH (5 knots; 2.6 m/s)
Visibility: 2.86 miles (4.60 km)
Ceiling: 2000 feet AGL
Clouds: few clouds at 700 feet AGL
broken clouds at 2000 feet AGL
broken clouds at 2300 feet AGL
Weather: BR  (mist)

METAR text: VVCI 212000Z 09005KT 5000 FEW007 BKN025 24/24 Q1007 NOSIG
Conditions at: VVCI (CAT VI , VN) observed 2000 UTC 21 March 2019
Temperature: 24.0°C (75°F)
Dewpoint: 24.0°C (75°F) [RH = 100%]
Pressure (altimeter): 29.73 inches Hg (1007.0 mb)
Winds: from the E (90 degrees) at 6 MPH (5 knots; 2.6 m/s)
Visibility: 3 miles ( 5 km)
Ceiling: 2500 feet AGL
Clouds: few clouds at 700 feet AGL
broken clouds at 2500 feet AGL
Weather: no significant weather observed at this time

METAR text: VVCI 211930Z 11004KT 6000 SCT008 BKN016 OVC018 25/25 Q1010 NOSIG
Conditions at: VVCI (CAT VI , VN) observed 1930 UTC 21 March 2019
Temperature: 25.0°C (77°F)
Dewpoint: 25.0°C (77°F) [RH = 100%]
Pressure (altimeter): 29.82 inches Hg (1010.0 mb)
Winds: from the ESE (110 degrees) at 5 MPH (4 knots; 2.1 m/s)
Visibility: 4 miles ( 6 km)
Ceiling: 1600 feet AGL
Clouds: scattered clouds at 800 feet AGL
broken clouds at 1600 feet AGL
overcast cloud deck at 1800 feet AGL
Weather: no significant weather observed at this time

METAR text: VVCI 211900Z 10004KT 6000 SCT008 BKN015 OVC022 25/25 Q1010 NOSIG
Conditions at: VVCI (CAT VI , VN) observed 1900 UTC 21 March 2019
Temperature: 25.0°C (77°F)
Dewpoint: 25.0°C (77°F) [RH = 100%]
Pressure (altimeter): 29.82 inches Hg (1010.0 mb)
Winds: from the E (100 degrees) at 5 MPH (4 knots; 2.1 m/s)
Visibility: 4 miles ( 6 km)
Ceiling: 1500 feet AGL
Clouds: scattered clouds at 800 feet AGL
broken clouds at 1500 feet AGL
overcast cloud deck at 2200 feet AGL
Weather: no significant weather observed at this time

METAR text: VVCI 211830Z 10003KT 7000 FEW008 OVC019 25/25 Q1009 NOSIG
Conditions at: VVCI (CAT VI , VN) observed 1830 UTC 21 March 2019
Temperature: 25.0°C (77°F)
Dewpoint: 25.0°C (77°F) [RH = 100%]
Pressure (altimeter): 29.79 inches Hg (1009.0 mb)
Winds: from the E (100 degrees) at 3 MPH (3 knots; 1.5 m/s)
Visibility: 4 miles ( 7 km)
Ceiling: 1900 feet AGL
Clouds: few clouds at 800 feet AGL
overcast cloud deck at 1900 feet AGL
Weather: no significant weather observed at this time

METAR text: VVCI 211800Z 10003KT 7000 FEW008 OVC019 25/25 Q1009 NOSIG
Conditions at: VVCI (CAT VI , VN) observed 1800 UTC 21 March 2019
Temperature: 25.0°C (77°F)
Dewpoint: 25.0°C (77°F) [RH = 100%]
Pressure (altimeter): 29.79 inches Hg (1009.0 mb)
Winds: from the E (100 degrees) at 3 MPH (3 knots; 1.5 m/s)
Visibility: 4 miles ( 7 km)
Ceiling: 1900 feet AGL
Clouds: few clouds at 800 feet AGL
overcast cloud deck at 1900 feet AGL
Weather: no significant weather observed at this time

METAR text: VVCI 211730Z 13004KT 9999 FEW009 OVC018 25/25 Q1009 NOSIG
Conditions at: VVCI (CAT VI , VN) observed 1730 UTC 21 March 2019
Temperature: 25.0°C (77°F)
Dewpoint: 25.0°C (77°F) [RH = 100%]
Pressure (altimeter): 29.79 inches Hg (1009.0 mb)
Winds: from the SE (130 degrees) at 5 MPH (4 knots; 2.1 m/s)
Visibility: 6 or more miles (10+ km)
Ceiling: 1800 feet AGL
Clouds: few clouds at 900 feet AGL
overcast cloud deck at 1800 feet AGL
Weather: no significant weather observed at this time

METAR text: VVCI 211700Z 14004KT 9999 FEW010 SCT014 OVC017 25/25 Q1009 NOSIG
Conditions at: VVCI (CAT VI , VN) observed 1700 UTC 21 March 2019
Temperature: 25.0°C (77°F)
Dewpoint: 25.0°C (77°F) [RH = 100%]
Pressure (altimeter): 29.79 inches Hg (1009.0 mb)
Winds: from the SE (140 degrees) at 5 MPH (4 knots; 2.1 m/s)
Visibility: 6 or more miles (10+ km)
Ceiling: 1700 feet AGL
Clouds: few clouds at 1000 feet AGL
scattered clouds at 1400 feet AGL
overcast cloud deck at 1700 feet AGL
Weather: no significant weather observed at this time

METAR text: VVCI 211630Z 13004KT 9999 BKN010 OVC015 25/24 Q1009 NOSIG
Conditions at: VVCI (CAT VI , VN) observed 1630 UTC 21 March 2019
Temperature: 25.0°C (77°F)
Dewpoint: 24.0°C (75°F) [RH = 94%]
Pressure (altimeter): 29.79 inches Hg (1009.0 mb)
Winds: from the SE (130 degrees) at 5 MPH (4 knots; 2.1 m/s)
Visibility: 6 or more miles (10+ km)
Ceiling: 1000 feet AGL
Clouds: broken clouds at 1000 feet AGL
overcast cloud deck at 1500 feet AGL
Weather: no significant weather observed at this time

METAR text: VVCI 211600Z 10004KT 9000 FEW011 OVC014 25/24 Q1009 NOSIG
Conditions at: VVCI (CAT VI , VN) observed 1600 UTC 21 March 2019
Temperature: 25.0°C (77°F)
Dewpoint: 24.0°C (75°F) [RH = 94%]
Pressure (altimeter): 29.79 inches Hg (1009.0 mb)
Winds: from the E (100 degrees) at 5 MPH (4 knots; 2.1 m/s)
Visibility: 6 miles ( 9 km)
Ceiling: 1400 feet AGL
Clouds: few clouds at 1100 feet AGL
overcast cloud deck at 1400 feet AGL
Weather: no significant weather observed at this time

METAR text: VVCI 211530Z 12004KT 090V150 9999 OVC016 25/24 Q1009 NOSIG
Conditions at: VVCI (CAT VI , VN) observed 1530 UTC 21 March 2019
Temperature: 25.0°C (77°F)
Dewpoint: 24.0°C (75°F) [RH = 94%]
Pressure (altimeter): 29.79 inches Hg (1009.0 mb)
Winds: from the ESE (120 degrees) at 5 MPH (4 knots; 2.1 m/s)
Visibility: 6 or more miles (10+ km)
Ceiling: 1600 feet AGL
Clouds: overcast cloud deck at 1600 feet AGL
Weather: no significant weather observed at this time

METAR text: VVCI 211500Z 13005KT 9999 OVC016 25/24 Q1009 NOSIG
Conditions at: VVCI (CAT VI , VN) observed 1500 UTC 21 March 2019
Temperature: 25.0°C (77°F)
Dewpoint: 24.0°C (75°F) [RH = 94%]
Pressure (altimeter): 29.79 inches Hg (1009.0 mb)
Winds: from the SE (130 degrees) at 6 MPH (5 knots; 2.6 m/s)
Visibility: 6 or more miles (10+ km)
Ceiling: 1600 feet AGL
Clouds: overcast cloud deck at 1600 feet AGL
Weather: no significant weather observed at this time

METAR text: VVCI 211430Z 12005KT 9999 OVC017 25/24 Q1009 NOSIG
Conditions at: VVCI (CAT VI , VN) observed 1430 UTC 21 March 2019
Temperature: 25.0°C (77°F)
Dewpoint: 24.0°C (75°F) [RH = 94%]
Pressure (altimeter): 29.79 inches Hg (1009.0 mb)
Winds: from the ESE (120 degrees) at 6 MPH (5 knots; 2.6 m/s)
Visibility: 6 or more miles (10+ km)
Ceiling: 1700 feet AGL
Clouds: overcast cloud deck at 1700 feet AGL
Weather: no significant weather observed at this time

METAR text: VVCI 211400Z 14007KT 9999 OVC019 25/25 Q1008 NOSIG
Conditions at: VVCI (CAT VI , VN) observed 1400 UTC 21 March 2019
Temperature: 25.0°C (77°F)
Dewpoint: 25.0°C (77°F) [RH = 100%]
Pressure (altimeter): 29.76 inches Hg (1008.0 mb)
Winds: from the SE (140 degrees) at 8 MPH (7 knots; 3.6 m/s)
Visibility: 6 or more miles (10+ km)
Ceiling: 1900 feet AGL
Clouds: overcast cloud deck at 1900 feet AGL
Weather: no significant weather observed at this time

METAR text: VVCI 211330Z 12006KT 9999 OVC020 25/25 Q1008 NOSIG
Conditions at: VVCI (CAT VI , VN) observed 1330 UTC 21 March 2019
Temperature: 25.0°C (77°F)
Dewpoint: 25.0°C (77°F) [RH = 100%]
Pressure (altimeter): 29.76 inches Hg (1008.0 mb)
Winds: from the ESE (120 degrees) at 7 MPH (6 knots; 3.1 m/s)
Visibility: 6 or more miles (10+ km)
Ceiling: 2000 feet AGL
Clouds: overcast cloud deck at 2000 feet AGL
Weather: no significant weather observed at this time

METAR text: VVCI 211300Z 12007KT 9999 FEW009 OVC020 25/25 Q1007 NOSIG
Conditions at: VVCI (CAT VI , VN) observed 1300 UTC 21 March 2019
Temperature: 25.0°C (77°F)
Dewpoint: 25.0°C (77°F) [RH = 100%]
Pressure (altimeter): 29.73 inches Hg (1007.0 mb)
Winds: from the ESE (120 degrees) at 8 MPH (7 knots; 3.6 m/s)
Visibility: 6 or more miles (10+ km)
Ceiling: 2000 feet AGL
Clouds: few clouds at 900 feet AGL
overcast cloud deck at 2000 feet AGL
Weather: no significant weather observed at this time

METAR text: VVCI 211230Z 13007KT 9999 FEW009 OVC020 25/25 Q1007 NOSIG
Conditions at: VVCI (CAT VI , VN) observed 1230 UTC 21 March 2019
Temperature: 25.0°C (77°F)
Dewpoint: 25.0°C (77°F) [RH = 100%]
Pressure (altimeter): 29.73 inches Hg (1007.0 mb)
Winds: from the SE (130 degrees) at 8 MPH (7 knots; 3.6 m/s)
Visibility: 6 or more miles (10+ km)
Ceiling: 2000 feet AGL
Clouds: few clouds at 900 feet AGL
overcast cloud deck at 2000 feet AGL
Weather: no significant weather observed at this time

METAR text: VVCI 211200Z 12007KT 9000 BKN008 BKN014 OVC023 25/25 Q1007 NOSIG
Conditions at: VVCI (CAT VI , VN) observed 1200 UTC 21 March 2019
Temperature: 25.0°C (77°F)
Dewpoint: 25.0°C (77°F) [RH = 100%]
Pressure (altimeter): 29.73 inches Hg (1007.0 mb)
Winds: from the ESE (120 degrees) at 8 MPH (7 knots; 3.6 m/s)
Visibility: 6 miles ( 9 km)
Ceiling: 800 feet AGL
Clouds: broken clouds at 800 feet AGL
broken clouds at 1400 feet AGL
overcast cloud deck at 2300 feet AGL
Weather: no significant weather observed at this time

METAR text: VVCI 211130Z 11008KT 8000 BKN007 OVC015 25/25 Q1007 NOSIG
Conditions at: VVCI (CAT VI , VN) observed 1130 UTC 21 March 2019
Temperature: 25.0°C (77°F)
Dewpoint: 25.0°C (77°F) [RH = 100%]
Pressure (altimeter): 29.73 inches Hg (1007.0 mb)
Winds: from the ESE (110 degrees) at 9 MPH (8 knots; 4.1 m/s)
Visibility: 5 miles ( 8 km)
Ceiling: 700 feet AGL
Clouds: broken clouds at 700 feet AGL
overcast cloud deck at 1500 feet AGL
Weather: no significant weather observed at this time

METAR text: VVCI 211100Z 12008KT 8000 FEW006 SCT008 BKN012 25/25 Q1007 NOSIG
Conditions at: VVCI (CAT VI , VN) observed 1100 UTC 21 March 2019
Temperature: 25.0°C (77°F)
Dewpoint: 25.0°C (77°F) [RH = 100%]
Pressure (altimeter): 29.73 inches Hg (1007.0 mb)
Winds: from the ESE (120 degrees) at 9 MPH (8 knots; 4.1 m/s)
Visibility: 5 miles ( 8 km)
Ceiling: 1200 feet AGL
Clouds: few clouds at 600 feet AGL
scattered clouds at 800 feet AGL
broken clouds at 1200 feet AGL
Weather: no significant weather observed at this time

METAR text: VVCI 211030Z 11008KT 6000 SCT010 BKN016 OVC022 26/25 Q1006 NOSIG
Conditions at: VVCI (CAT VI , VN) observed 1030 UTC 21 March 2019
Temperature: 26.0°C (79°F)
Dewpoint: 25.0°C (77°F) [RH = 94%]
Pressure (altimeter): 29.70 inches Hg (1006.0 mb)
Winds: from the ESE (110 degrees) at 9 MPH (8 knots; 4.1 m/s)
Visibility: 4 miles ( 6 km)
Ceiling: 1600 feet AGL
Clouds: scattered clouds at 1000 feet AGL
broken clouds at 1600 feet AGL
overcast cloud deck at 2200 feet AGL
Weather: no significant weather observed at this time

METAR text: VVCI 211000Z 11006KT 9999 BKN009 OVC016 26/25 Q1006 NOSIG
Conditions at: VVCI (CAT VI , VN) observed 1000 UTC 21 March 2019
Temperature: 26.0°C (79°F)
Dewpoint: 25.0°C (77°F) [RH = 94%]
Pressure (altimeter): 29.70 inches Hg (1006.0 mb)
Winds: from the ESE (110 degrees) at 7 MPH (6 knots; 3.1 m/s)
Visibility: 6 or more miles (10+ km)
Ceiling: 900 feet AGL
Clouds: broken clouds at 900 feet AGL
overcast cloud deck at 1600 feet AGL
Weather: no significant weather observed at this time

METAR text: VVCI 210930Z 11007KT 9999 BKN010 OVC015 26/25 Q1006 NOSIG
Conditions at: VVCI (CAT VI , VN) observed 0930 UTC 21 March 2019
Temperature: 26.0°C (79°F)
Dewpoint: 25.0°C (77°F) [RH = 94%]
Pressure (altimeter): 29.70 inches Hg (1006.0 mb)
Winds: from the ESE (110 degrees) at 8 MPH (7 knots; 3.6 m/s)
Visibility: 6 or more miles (10+ km)
Ceiling: 1000 feet AGL
Clouds: broken clouds at 1000 feet AGL
overcast cloud deck at 1500 feet AGL
Weather: no significant weather observed at this time

METAR text: VVCI 210900Z 13008KT 9999 BKN010 OVC015 26/25 Q1006 NOSIG
Conditions at: VVCI (CAT VI , VN) observed 0900 UTC 21 March 2019
Temperature: 26.0°C (79°F)
Dewpoint: 25.0°C (77°F) [RH = 94%]
Pressure (altimeter): 29.70 inches Hg (1006.0 mb)
Winds: from the SE (130 degrees) at 9 MPH (8 knots; 4.1 m/s)
Visibility: 6 or more miles (10+ km)
Ceiling: 1000 feet AGL
Clouds: broken clouds at 1000 feet AGL
overcast cloud deck at 1500 feet AGL
Weather: no significant weather observed at this time

METAR text: VVCI 210830Z 13008KT 9999 SCT010 BKN014 OVC018 26/24 Q1006 NOSIG
Conditions at: VVCI (CAT VI , VN) observed 0830 UTC 21 March 2019
Temperature: 26.0°C (79°F)
Dewpoint: 24.0°C (75°F) [RH = 89%]
Pressure (altimeter): 29.70 inches Hg (1006.0 mb)
Winds: from the SE (130 degrees) at 9 MPH (8 knots; 4.1 m/s)
Visibility: 6 or more miles (10+ km)
Ceiling: 1400 feet AGL
Clouds: scattered clouds at 1000 feet AGL
broken clouds at 1400 feet AGL
overcast cloud deck at 1800 feet AGL
Weather: no significant weather observed at this time

METAR text: VVCI 210800Z 13007KT 9999 SCT009 OVC013 26/25 Q1006 NOSIG
Conditions at: VVCI (CAT VI , VN) observed 0800 UTC 21 March 2019
Temperature: 26.0°C (79°F)
Dewpoint: 25.0°C (77°F) [RH = 94%]
Pressure (altimeter): 29.70 inches Hg (1006.0 mb)
Winds: from the SE (130 degrees) at 8 MPH (7 knots; 3.6 m/s)
Visibility: 6 or more miles (10+ km)
Ceiling: 1300 feet AGL
Clouds: scattered clouds at 900 feet AGL
overcast cloud deck at 1300 feet AGL
Weather: no significant weather observed at this time

METAR text: VVCI 210730Z 13008KT 9999 BKN010 OVC015 26/25 Q1007 NOSIG
Conditions at: VVCI (CAT VI , VN) observed 0730 UTC 21 March 2019
Temperature: 26.0°C (79°F)
Dewpoint: 25.0°C (77°F) [RH = 94%]
Pressure (altimeter): 29.73 inches Hg (1007.0 mb)
Winds: from the SE (130 degrees) at 9 MPH (8 knots; 4.1 m/s)
Visibility: 6 or more miles (10+ km)
Ceiling: 1000 feet AGL
Clouds: broken clouds at 1000 feet AGL
overcast cloud deck at 1500 feet AGL
Weather: no significant weather observed at this time

METAR text: VVCI 210700Z 12007KT 9999 BKN011 OVC015 26/25 Q1007 NOSIG
Conditions at: VVCI (CAT VI , VN) observed 0700 UTC 21 March 2019
Temperature: 26.0°C (79°F)
Dewpoint: 25.0°C (77°F) [RH = 94%]
Pressure (altimeter): 29.73 inches Hg (1007.0 mb)
Winds: from the ESE (120 degrees) at 8 MPH (7 knots; 3.6 m/s)
Visibility: 6 or more miles (10+ km)
Ceiling: 1100 feet AGL
Clouds: broken clouds at 1100 feet AGL
overcast cloud deck at 1500 feet AGL
Weather: no significant weather observed at this time

METAR text: VVCI 210630Z 12006KT 080V160 9999 FEW010 BKN012 OVC014 26/25 Q1008 NOSIG
Conditions at: VVCI (CAT VI , VN) observed 0630 UTC 21 March 2019
Temperature: 26.0°C (79°F)
Dewpoint: 25.0°C (77°F) [RH = 94%]
Pressure (altimeter): 29.76 inches Hg (1008.0 mb)
Winds: from the ESE (120 degrees) at 7 MPH (6 knots; 3.1 m/s)
Visibility: 6 or more miles (10+ km)
Ceiling: 1200 feet AGL
Clouds: few clouds at 1000 feet AGL
broken clouds at 1200 feet AGL
overcast cloud deck at 1400 feet AGL
Weather: no significant weather observed at this time

METAR text: VVCI 210600Z 12005KT 090V160 9999 FEW009 BKN013 OVC015 26/25 Q1009 NOSIG
Conditions at: VVCI (CAT VI , VN) observed 0600 UTC 21 March 2019
Temperature: 26.0°C (79°F)
Dewpoint: 25.0°C (77°F) [RH = 94%]
Pressure (altimeter): 29.79 inches Hg (1009.0 mb)
Winds: from the ESE (120 degrees) at 6 MPH (5 knots; 2.6 m/s)
Visibility: 6 or more miles (10+ km)
Ceiling: 1300 feet AGL
Clouds: few clouds at 900 feet AGL
broken clouds at 1300 feet AGL
overcast cloud deck at 1500 feet AGL
Weather: no significant weather observed at this time

METAR text: VVCI 210530Z 15005KT 9999 BKN010 OVC012 26/25 Q1010 NOSIG
Conditions at: VVCI (CAT VI , VN) observed 0530 UTC 21 March 2019
Temperature: 26.0°C (79°F)
Dewpoint: 25.0°C (77°F) [RH = 94%]
Pressure (altimeter): 29.82 inches Hg (1010.0 mb)
Winds: from the SSE (150 degrees) at 6 MPH (5 knots; 2.6 m/s)
Visibility: 6 or more miles (10+ km)
Ceiling: 1000 feet AGL
Clouds: broken clouds at 1000 feet AGL
overcast cloud deck at 1200 feet AGL
Weather: no significant weather observed at this time

METAR text: VVCI 210500Z 13005KT 090V170 9999 FEW009 BKN012 OVC022 26/25 Q1010 NOSIG
Conditions at: VVCI (CAT VI , VN) observed 0500 UTC 21 March 2019
Temperature: 26.0°C (79°F)
Dewpoint: 25.0°C (77°F) [RH = 94%]
Pressure (altimeter): 29.82 inches Hg (1010.0 mb)
Winds: from the SE (130 degrees) at 6 MPH (5 knots; 2.6 m/s)
Visibility: 6 or more miles (10+ km)
Ceiling: 1200 feet AGL
Clouds: few clouds at 900 feet AGL
broken clouds at 1200 feet AGL
overcast cloud deck at 2200 feet AGL
Weather: no significant weather observed at this time

METAR text: VVCI 210430Z 11004KT 9999 FEW008 SCT012 OVC015 26/25 Q1011 NOSIG
Conditions at: VVCI (CAT VI , VN) observed 0430 UTC 21 March 2019
Temperature: 26.0°C (79°F)
Dewpoint: 25.0°C (77°F) [RH = 94%]
Pressure (altimeter): 29.85 inches Hg (1011.0 mb)
Winds: from the ESE (110 degrees) at 5 MPH (4 knots; 2.1 m/s)
Visibility: 6 or more miles (10+ km)
Ceiling: 1500 feet AGL
Clouds: few clouds at 800 feet AGL
scattered clouds at 1200 feet AGL
overcast cloud deck at 1500 feet AGL
Weather: no significant weather observed at this time

METAR text: VVCI 210400Z 11004KT 8000 BKN012 OVC014 25/25 Q1011 NOSIG
Conditions at: VVCI (CAT VI , VN) observed 0400 UTC 21 March 2019
Temperature: 25.0°C (77°F)
Dewpoint: 25.0°C (77°F) [RH = 100%]
Pressure (altimeter): 29.85 inches Hg (1011.0 mb)
Winds: from the ESE (110 degrees) at 5 MPH (4 knots; 2.1 m/s)
Visibility: 5 miles ( 8 km)
Ceiling: 1200 feet AGL
Clouds: broken clouds at 1200 feet AGL
overcast cloud deck at 1400 feet AGL
Weather: no significant weather observed at this time

METAR text: VVCI 210330Z 13003KT 110V170 9999 BKN013 OVC016 25/25 Q1011 NOSIG
Conditions at: VVCI (CAT VI , VN) observed 0330 UTC 21 March 2019
Temperature: 25.0°C (77°F)
Dewpoint: 25.0°C (77°F) [RH = 100%]
Pressure (altimeter): 29.85 inches Hg (1011.0 mb)
Winds: from the SE (130 degrees) at 3 MPH (3 knots; 1.5 m/s)
Visibility: 6 or more miles (10+ km)
Ceiling: 1300 feet AGL
Clouds: broken clouds at 1300 feet AGL
overcast cloud deck at 1600 feet AGL
Weather: no significant weather observed at this time

METAR text: VVCI 210300Z VRB02KT 9999 FEW009 BKN011 OVC014 25/24 Q1011 NOSIG
Conditions at: VVCI (CAT VI , VN) observed 0300 UTC 21 March 2019
Temperature: 25.0°C (77°F)
Dewpoint: 24.0°C (75°F) [RH = 94%]
Pressure (altimeter): 29.85 inches Hg (1011.0 mb)
Winds: variable direction winds at 2 MPH (2 knots; 1.0 m/s)
Visibility: 6 or more miles (10+ km)
Ceiling: 1100 feet AGL
Clouds: few clouds at 900 feet AGL
broken clouds at 1100 feet AGL
overcast cloud deck at 1400 feet AGL
Weather: no significant weather observed at this time

METAR text: VVCI 210230Z 11003KT 070V150 9999 BKN008 BKN015 OVC030 25/24 Q1011 NOSIG
Conditions at: VVCI (CAT VI , VN) observed 0230 UTC 21 March 2019
Temperature: 25.0°C (77°F)
Dewpoint: 24.0°C (75°F) [RH = 94%]
Pressure (altimeter): 29.85 inches Hg (1011.0 mb)
Winds: from the ESE (110 degrees) at 3 MPH (3 knots; 1.5 m/s)
Visibility: 6 or more miles (10+ km)
Ceiling: 800 feet AGL
Clouds: broken clouds at 800 feet AGL
broken clouds at 1500 feet AGL
overcast cloud deck at 3000 feet AGL
Weather: no significant weather observed at this time

METAR text: VVCI 210200Z 13006KT 9999 SCT008 BKN015 OVC030 25/24 Q1011 NOSIG
Conditions at: VVCI (CAT VI , VN) observed 0200 UTC 21 March 2019
Temperature: 25.0°C (77°F)
Dewpoint: 24.0°C (75°F) [RH = 94%]
Pressure (altimeter): 29.85 inches Hg (1011.0 mb)
Winds: from the SE (130 degrees) at 7 MPH (6 knots; 3.1 m/s)
Visibility: 6 or more miles (10+ km)
Ceiling: 1500 feet AGL
Clouds: scattered clouds at 800 feet AGL
broken clouds at 1500 feet AGL
overcast cloud deck at 3000 feet AGL
Weather: no significant weather observed at this time

METAR text: VVCI 210130Z 12006KT 9999 SCT007 BKN009 OVC030 25/24 Q1010 NOSIG
Conditions at: VVCI (CAT VI , VN) observed 0130 UTC 21 March 2019
Temperature: 25.0°C (77°F)
Dewpoint: 24.0°C (75°F) [RH = 94%]
Pressure (altimeter): 29.82 inches Hg (1010.0 mb)
Winds: from the ESE (120 degrees) at 7 MPH (6 knots; 3.1 m/s)
Visibility: 6 or more miles (10+ km)
Ceiling: 900 feet AGL
Clouds: scattered clouds at 700 feet AGL
broken clouds at 900 feet AGL
overcast cloud deck at 3000 feet AGL
Weather: no significant weather observed at this time

METAR text: VVCI 210030Z 13005KT 100V160 9999 FEW009 BKN011 OVC026 25/25 Q1010 NOSIG
Conditions at: VVCI (CAT VI , VN) observed 0030 UTC 21 March 2019
Temperature: 25.0°C (77°F)
Dewpoint: 25.0°C (77°F) [RH = 100%]
Pressure (altimeter): 29.82 inches Hg (1010.0 mb)
Winds: from the SE (130 degrees) at 6 MPH (5 knots; 2.6 m/s)
Visibility: 6 or more miles (10+ km)
Ceiling: 1100 feet AGL
Clouds: few clouds at 900 feet AGL
broken clouds at 1100 feet AGL
overcast cloud deck at 2600 feet AGL
Weather: no significant weather observed at this time

METAR text: VVCI 210000Z 11005KT 9999 SCT010 BKN012 OVC026 25/24 Q1010 NOSIG
Conditions at: VVCI (CAT VI , VN) observed 0000 UTC 21 March 2019
Temperature: 25.0°C (77°F)
Dewpoint: 24.0°C (75°F) [RH = 94%]
Pressure (altimeter): 29.82 inches Hg (1010.0 mb)
Winds: from the ESE (110 degrees) at 6 MPH (5 knots; 2.6 m/s)
Visibility: 6 or more miles (10+ km)
Ceiling: 1200 feet AGL
Clouds: scattered clouds at 1000 feet AGL
broken clouds at 1200 feet AGL
overcast cloud deck at 2600 feet AGL
Weather: no significant weather observed at this time

Forecast for: VVCI (CAT VI , VN)
Text: TAF VVCI 221100Z 2212/2312 12007KT 4500 BR SCT007 BKN025
Forecast period: 1200 UTC 22 March 2019 to 0100 UTC 23 March 2019
Forecast type: FROM: standard forecast or significant change
Winds: from the ESE (120 degrees) at 8 MPH (7 knots; 3.6 m/s)
Visibility: 2.80 miles (4.51 km)
Ceiling: 2500 feet AGL
Clouds: scattered clouds at 700 feet AGL
broken clouds at 2500 feet AGL
Weather: BR  (mist)
Text: PROB30
Forecast period: 1500 to 2000 UTC 22 March 2019
Forecast type: TEMPORARY: The following changes expected for less than half the time period
Visibility: 1.24 miles (2.00 km)
Ceiling: 600 feet AGL
Clouds: broken clouds at 600 feet AGL
overcast cloud deck at 2000 feet AGL
Weather: DZ BR  (moderate drizzle, mist)
Text: TEMPO 2215/2220 2000 DZ BR BKN006 OVC020
Forecast period: 0100 to 0500 UTC 23 March 2019
Forecast type: BECOMING: Conditions expected to become as follows by 0200 UTC 23 March 2019
Winds: from the ESE (120 degrees) at 8 MPH (7 knots; 3.6 m/s)
Visibility: 4 miles (6 km)
Ceiling: 4000 feet AGL
Clouds: scattered clouds at 1300 feet AGL
broken clouds at 4000 feet AGL
Weather: NSW  (no significant weather)
Text: BECMG 2301/2302 6000 NSW SCT013 BKN040
Forecast period: 0500 to 1200 UTC 23 March 2019
Forecast type: BECOMING: Conditions expected to become as follows by 0600 UTC 23 March 2019
Winds: from the NE (50 degrees) at 12 MPH (10 knots; 5.1 m/s)
Visibility: 4 miles (6 km)
Ceiling: 4000 feet AGL
Clouds: scattered clouds at 1300 feet AGL
broken clouds at 4000 feet AGL
Weather: NSW  (no significant weather)